Terminal Aerodrome Forecast
Issued by NWS

Home | Current Version | Previous Version | Text Only | Print | Product List | Glossary On
Versions: 1 2 3 4 5 6 7 8 9 10 11 12 13 14 15 16 17 18 19
853
FTUS42 KMLB 202057 AAC
TAFSFB
TAF AMD
KSFB 202057Z 2021/2118 10008KT P6SM -RA VCSH SCT010 BKN035 OVC050
      TEMPO 2021/2023 3SM +RA BKN008
     FM202300 11009KT P6SM VCSH FEW015 BKN040 OVC100
     FM210200 10005KT P6SM FEW025 BKN100
     FM211400 13013KT P6SM VCSH FEW025 BKN060=

USA.gov is the U.S. government's official web portal to all federal, state and local government web resources and services.